Time;durP1;ratioP1;P1;durP2;ratioP2;P2;SDS_P1;SDS_P2;PMS_P1;PMS_P2;Temp;Humidity;BMP_temperature;BMP_pressure;BME280_temperature;BME280_humidity;BME280_pressure;Samples;Min_cycle;Max_cycle;Signal;HPM_P1;HPM_P2
2024/04/06 00:00:32;;;;;;;24.07;22.57;;;;;;;;;;5052880;28;20455;-80
2024/04/06 00:02:58;;;;;;;23.70;22.03;;;;;;;;;;5040709;28;20427;-79
2024/04/06 00:05:25;;;;;;;23.30;22.00;;;;;;;;;;5033129;28;20426;-78
2024/04/06 00:07:51;;;;;;;24.03;22.43;;;;;;;;;;5033012;28;20415;-78
2024/04/06 00:10:19;;;;;;;23.03;21.60;;;;;;;;;;5032178;28;21006;-78
2024/04/06 00:12:46;;;;;;;23.03;21.57;;;;;;;;;;5032617;28;21074;-79
2024/04/06 00:15:13;;;;;;;24.83;23.17;;;;;;;;;;5033442;28;20460;-78
2024/04/06 00:17:39;;;;;;;22.63;21.40;;;;;;;;;;5032797;28;20463;-79
2024/04/06 00:20:07;;;;;;;23.40;21.77;;;;;;;;;;5032215;28;20498;-78
2024/04/06 00:22:33;;;;;;;22.50;21.10;;;;;;;;;;5032310;28;20544;-77
2024/04/06 00:25:00;;;;;;;21.63;20.50;;;;;;;;;;5032571;28;20547;-79
2024/04/06 00:27:26;;;;;;;22.50;21.30;;;;;;;;;;5032648;28;20503;-78
2024/04/06 00:29:54;;;;;;;23.67;22.20;;;;;;;;;;5033372;28;20464;-79
2024/04/06 00:32:21;;;;;;;22.43;21.33;;;;;;;;;;5032895;28;20519;-79
2024/04/06 00:34:48;;;;;;;22.30;20.90;;;;;;;;;;5032659;28;20448;-79
2024/04/06 00:37:14;;;;;;;22.23;20.87;;;;;;;;;;5032598;28;20476;-78
2024/04/06 00:39:41;;;;;;;22.17;20.77;;;;;;;;;;5032505;28;20790;-79
2024/04/06 00:42:08;;;;;;;21.40;20.20;;;;;;;;;;5032170;28;20545;-78
2024/04/06 00:44:35;;;;;;;21.73;20.53;;;;;;;;;;5034926;28;20433;-79
2024/04/06 00:47:03;;;;;;;21.40;20.20;;;;;;;;;;5036797;28;20456;-79
2024/04/06 00:49:30;;;;;;;21.73;20.43;;;;;;;;;;5036379;28;20463;-79
2024/04/06 00:51:57;;;;;;;22.33;21.00;;;;;;;;;;5036353;28;20499;-79
2024/04/06 00:54:24;;;;;;;22.17;20.67;;;;;;;;;;5036427;28;20456;-78
2024/04/06 00:56:50;;;;;;;23.33;21.80;;;;;;;;;;5036356;28;20491;-80
2024/04/06 00:59:18;;;;;;;22.27;20.70;;;;;;;;;;5035561;28;20492;-78
2024/04/06 01:01:44;;;;;;;21.70;20.47;;;;;;;;;;5036023;28;20470;-79
2024/04/06 01:04:12;;;;;;;22.13;20.93;;;;;;;;;;5036487;28;20490;-79
2024/04/06 01:06:38;;;;;;;22.40;21.00;;;;;;;;;;5036418;28;20472;-78
2024/04/06 01:09:07;;;;;;;21.97;20.60;;;;;;;;;;5035730;28;20453;-78
2024/04/06 01:11:35;;;;;;;21.50;20.50;;;;;;;;;;5036412;28;20465;-79
2024/04/06 01:14:02;;;;;;;23.20;21.63;;;;;;;;;;5036078;28;20474;-78
2024/04/06 01:16:28;;;;;;;21.83;20.63;;;;;;;;;;5036026;28;20439;-78
2024/04/06 01:18:55;;;;;;;23.30;21.70;;;;;;;;;;5035601;28;20851;-78
2024/04/06 01:21:23;;;;;;;22.70;21.37;;;;;;;;;;5036781;28;20475;-78
2024/04/06 01:23:53;;;;;;;23.13;21.83;;;;;;;;;;5032525;28;20459;-79
2024/04/06 01:26:20;;;;;;;21.83;20.70;;;;;;;;;;5016875;28;20448;-78
2024/04/06 01:28:47;;;;;;;23.53;22.33;;;;;;;;;;5015744;28;20483;-79
2024/04/06 01:31:13;;;;;;;22.33;21.23;;;;;;;;;;5015741;28;20462;-79
2024/04/06 01:33:40;;;;;;;23.50;21.93;;;;;;;;;;5015927;28;20449;-79
2024/04/06 01:36:06;;;;;;;23.57;22.17;;;;;;;;;;5016130;28;20476;-78
2024/04/06 01:38:33;;;;;;;23.30;22.20;;;;;;;;;;5015152;28;20845;-79
2024/04/06 01:41:00;;;;;;;23.90;22.70;;;;;;;;;;5015710;28;20503;-78
2024/04/06 01:43:28;;;;;;;24.63;23.13;;;;;;;;;;5015522;28;20418;-79
2024/04/06 01:45:54;;;;;;;24.33;23.00;;;;;;;;;;5015327;28;20988;-77
2024/04/06 01:48:21;;;;;;;24.50;23.03;;;;;;;;;;5021148;28;20456;-78
2024/04/06 01:50:47;;;;;;;22.60;21.50;;;;;;;;;;5036271;28;20480;-79
2024/04/06 01:53:14;;;;;;;24.67;22.70;;;;;;;;;;5044655;28;20418;-79
2024/04/06 01:55:40;;;;;;;23.00;21.70;;;;;;;;;;5040408;28;20830;-80
2024/04/06 01:58:07;;;;;;;23.60;22.40;;;;;;;;;;5035072;28;20534;-79
2024/04/06 02:00:34;;;;;;;23.37;21.97;;;;;;;;;;5047244;28;20464;-78
2024/04/06 02:03:04;;;;;;;23.17;21.80;;;;;;;;;;5039595;28;20418;-79
2024/04/06 02:05:30;;;;;;;24.10;22.90;;;;;;;;;;5035184;28;20423;-79
2024/04/06 02:07:56;;;;;;;22.70;21.50;;;;;;;;;;5036564;28;20425;-78
2024/04/06 02:10:22;;;;;;;22.53;21.23;;;;;;;;;;5034251;28;20490;-77
2024/04/06 02:12:50;;;;;;;24.23;22.00;;;;;;;;;;5035624;28;20856;-78
2024/04/06 02:15:16;;;;;;;21.93;20.87;;;;;;;;;;5035319;28;20456;-78
2024/04/06 02:17:45;;;;;;;23.73;22.00;;;;;;;;;;5035320;28;20833;-78
2024/04/06 02:20:11;;;;;;;23.13;21.83;;;;;;;;;;5036482;28;20855;-78
2024/04/06 02:22:38;;;;;;;23.33;21.90;;;;;;;;;;5034908;28;20439;-78
2024/04/06 02:25:05;;;;;;;22.57;21.27;;;;;;;;;;5036635;28;20473;-78
2024/04/06 02:27:33;;;;;;;23.13;21.63;;;;;;;;;;5034895;28;20490;-79
2024/04/06 02:30:00;;;;;;;22.80;21.40;;;;;;;;;;5033922;28;20468;-78
2024/04/06 02:32:26;;;;;;;24.50;23.10;;;;;;;;;;5034676;28;20543;-79
2024/04/06 02:34:55;;;;;;;23.17;21.70;;;;;;;;;;5034767;28;20449;-79
2024/04/06 02:37:21;;;;;;;23.37;21.70;;;;;;;;;;5034669;28;20509;-79
2024/04/06 02:39:48;;;;;;;24.40;23.20;;;;;;;;;;5036642;28;20423;-78
2024/04/06 02:42:14;;;;;;;22.83;21.63;;;;;;;;;;5036668;28;21377;-78
2024/04/06 02:44:41;;;;;;;22.90;21.60;;;;;;;;;;5034957;28;20485;-79
2024/04/06 02:47:07;;;;;;;22.17;20.80;;;;;;;;;;5035213;28;20456;-80
2024/04/06 02:49:34;;;;;;;22.37;21.27;;;;;;;;;;5034622;28;20525;-78
2024/04/06 02:52:02;;;;;;;23.20;22.00;;;;;;;;;;5034794;28;20579;-79
2024/04/06 02:54:29;;;;;;;22.60;21.50;;;;;;;;;;5035110;28;20464;-78
2024/04/06 02:56:55;;;;;;;22.60;21.20;;;;;;;;;;5035384;28;20494;-79
2024/04/06 02:59:22;;;;;;;22.53;21.07;;;;;;;;;;5034683;28;20465;-80
2024/04/06 03:01:48;;;;;;;22.00;20.80;;;;;;;;;;5035068;28;20577;-79
2024/04/06 03:04:15;;;;;;;24.87;23.47;;;;;;;;;;5034969;28;20499;-79
2024/04/06 03:06:41;;;;;;;22.07;20.80;;;;;;;;;;5034351;28;20835;-79
2024/04/06 03:09:09;;;;;;;21.63;20.13;;;;;;;;;;5033910;28;20452;-79
2024/04/06 03:11:35;;;;;;;21.30;19.90;;;;;;;;;;5035091;28;20534;-79
2024/04/06 03:14:02;;;;;;;21.70;20.13;;;;;;;;;;5034923;28;20446;-79
2024/04/06 03:16:28;;;;;;;20.40;19.40;;;;;;;;;;5035591;28;20502;-79
2024/04/06 03:18:55;;;;;;;22.17;20.70;;;;;;;;;;5035516;28;20422;-78
2024/04/06 03:21:21;;;;;;;21.50;20.50;;;;;;;;;;5036818;28;20451;-79
2024/04/06 03:23:50;;;;;;;22.00;20.30;;;;;;;;;;5038389;28;20426;-78
2024/04/06 03:26:17;;;;;;;20.70;19.60;;;;;;;;;;5037099;28;20431;-78
2024/04/06 03:28:44;;;;;;;20.30;19.30;;;;;;;;;;5036314;28;20501;-79
2024/04/06 03:31:10;;;;;;;20.97;19.83;;;;;;;;;;5036701;28;20527;-78
2024/04/06 03:33:37;;;;;;;22.13;20.87;;;;;;;;;;5037167;28;20419;-79
2024/04/06 03:36:03;;;;;;;21.00;19.90;;;;;;;;;;5036553;28;20505;-80
2024/04/06 03:38:30;;;;;;;20.33;19.33;;;;;;;;;;5035702;28;20842;-79
2024/04/06 03:40:57;;;;;;;21.17;19.90;;;;;;;;;;5036465;28;20864;-79
2024/04/06 03:43:26;;;;;;;21.57;20.37;;;;;;;;;;5036889;28;20498;-78
2024/04/06 03:45:54;;;;;;;22.23;21.03;;;;;;;;;;5042090;28;20484;-80
2024/04/06 03:48:22;;;;;;;21.57;20.47;;;;;;;;;;5036173;28;20566;-79
2024/04/06 03:50:48;;;;;;;21.47;20.40;;;;;;;;;;5039864;28;20539;-81
2024/04/06 03:53:15;;;;;;;21.50;20.30;;;;;;;;;;5037018;28;20451;-81
2024/04/06 03:55:41;;;;;;;20.50;19.50;;;;;;;;;;5036673;28;20539;-79
2024/04/06 03:58:08;;;;;;;21.63;20.53;;;;;;;;;;5035393;28;21360;-81
2024/04/06 04:00:36;;;;;;;20.57;19.57;;;;;;;;;;5036769;28;20874;-79
2024/04/06 04:03:02;;;;;;;22.00;20.80;;;;;;;;;;5036496;28;20528;-79
2024/04/06 04:05:29;;;;;;;21.77;20.47;;;;;;;;;;5035796;28;21010;-79
2024/04/06 04:07:55;;;;;;;21.10;20.00;;;;;;;;;;5036175;28;20943;-79
2024/04/06 04:10:21;;;;;;;21.97;20.87;;;;;;;;;;5034987;28;20964;-81
2024/04/06 04:12:48;;;;;;;22.03;20.83;;;;;;;;;;5035778;28;20472;-79
2024/04/06 04:15:15;;;;;;;22.50;21.20;;;;;;;;;;5034925;28;20471;-79
2024/04/06 04:17:43;;;;;;;22.07;20.87;;;;;;;;;;5036619;28;20487;-78
2024/04/06 04:20:09;;;;;;;22.23;20.80;;;;;;;;;;5041464;28;20436;-80
2024/04/06 04:22:36;;;;;;;22.17;21.07;;;;;;;;;;5043589;28;20488;-80
2024/04/06 04:25:02;;;;;;;21.30;20.00;;;;;;;;;;5043545;28;20533;-78
2024/04/06 04:27:31;;;;;;;20.70;19.60;;;;;;;;;;5043653;28;20991;-80
2024/04/06 04:29:58;;;;;;;23.93;22.70;;;;;;;;;;5042880;28;20451;-81
2024/04/06 04:32:25;;;;;;;21.73;20.27;;;;;;;;;;5060996;28;20470;-79
2024/04/06 04:34:52;;;;;;;21.47;20.17;;;;;;;;;;5063699;28;20500;-79
2024/04/06 04:37:19;;;;;;;21.93;20.93;;;;;;;;;;5063839;28;20610;-81
2024/04/06 04:39:45;;;;;;;21.53;20.43;;;;;;;;;;5063409;28;20527;-80
2024/04/06 04:42:12;;;;;;;21.80;20.70;;;;;;;;;;5063177;28;20482;-80
2024/04/06 04:44:38;;;;;;;21.87;20.87;;;;;;;;;;5062182;28;20487;-77
2024/04/06 04:47:05;;;;;;;22.13;21.00;;;;;;;;;;5056597;28;20523;-77
2024/04/06 04:49:31;;;;;;;21.90;20.80;;;;;;;;;;5055792;28;20875;-76
2024/04/06 04:51:59;;;;;;;22.33;21.13;;;;;;;;;;5057542;28;20462;-77
2024/04/06 04:54:25;;;;;;;22.27;21.07;;;;;;;;;;5056429;28;20463;-75
2024/04/06 04:56:52;;;;;;;22.40;21.10;;;;;;;;;;5056387;28;20511;-77
2024/04/06 04:59:18;;;;;;;21.00;19.70;;;;;;;;;;5055560;28;20464;-78
2024/04/06 05:01:45;;;;;;;21.60;20.50;;;;;;;;;;5057729;28;20523;-75
2024/04/06 05:04:11;;;;;;;21.97;20.80;;;;;;;;;;5056713;28;20473;-75
2024/04/06 05:06:38;;;;;;;22.30;21.20;;;;;;;;;;5056745;28;20460;-75
2024/04/06 05:09:06;;;;;;;22.40;21.20;;;;;;;;;;5055694;28;20472;-76
2024/04/06 05:11:34;;;;;;;22.90;21.60;;;;;;;;;;5057034;28;20475;-75
2024/04/06 05:14:00;;;;;;;23.53;22.17;;;;;;;;;;5056919;28;20446;-75
2024/04/06 05:16:27;;;;;;;22.87;21.67;;;;;;;;;;5057305;28;20465;-75
2024/04/06 05:18:53;;;;;;;23.27;21.77;;;;;;;;;;5056008;28;20466;-77
2024/04/06 05:21:20;;;;;;;24.67;23.37;;;;;;;;;;5056231;28;20471;-75
2024/04/06 05:23:46;;;;;;;24.67;23.47;;;;;;;;;;5056609;28;20446;-75
2024/04/06 05:26:14;;;;;;;23.23;21.93;;;;;;;;;;5056141;28;20447;-75
2024/04/06 05:28:41;;;;;;;22.90;21.80;;;;;;;;;;5031057;28;20457;-74
2024/04/06 05:31:08;;;;;;;21.50;20.40;;;;;;;;;;5019228;28;20490;-76
2024/04/06 05:33:34;;;;;;;22.13;21.00;;;;;;;;;;5035148;28;20460;-76
2024/04/06 05:36:04;;;;;;;23.70;22.50;;;;;;;;;;5034473;28;20498;-76
2024/04/06 05:38:30;;;;;;;21.97;20.63;;;;;;;;;;5033955;28;20475;-75
2024/04/06 05:40:57;;;;;;;22.37;21.33;;;;;;;;;;5032174;28;20472;-75
2024/04/06 05:43:25;;;;;;;21.60;20.30;;;;;;;;;;5033057;28;20476;-76
2024/04/06 05:46:00;;;;;;;21.80;20.60;;;;;;;;;;5032602;28;20527;-76
2024/04/06 05:48:26;;;;;;;22.63;21.10;;;;;;;;;;5032403;28;20410;-77
2024/04/06 05:50:53;;;;;;;22.33;21.23;;;;;;;;;;5023437;28;20482;-72
2024/04/06 05:53:19;;;;;;;22.73;21.37;;;;;;;;;;5023185;28;20546;-76
2024/04/06 05:55:46;;;;;;;22.20;20.97;;;;;;;;;;5017689;28;20464;-75
2024/04/06 05:58:12;;;;;;;21.83;20.80;;;;;;;;;;5016070;28;20493;-75
2024/04/06 06:00:41;;;;;;;21.77;20.77;;;;;;;;;;5012320;28;20454;-76
2024/04/06 06:03:07;;;;;;;22.73;21.53;;;;;;;;;;5014760;28;20454;-76
2024/04/06 06:05:34;;;;;;;21.53;20.30;;;;;;;;;;5013225;28;20457;-75
2024/04/06 06:08:00;;;;;;;21.40;20.30;;;;;;;;;;5013376;28;20503;-74
2024/04/06 06:10:27;;;;;;;21.63;20.43;;;;;;;;;;5013808;28;20457;-74
2024/04/06 06:12:53;;;;;;;22.00;20.80;;;;;;;;;;5012991;28;20869;-76
2024/04/06 06:15:20;;;;;;;19.97;19.07;;;;;;;;;;5012341;28;20552;-74
2024/04/06 06:17:48;;;;;;;21.30;20.10;;;;;;;;;;5012177;28;20621;-75
2024/04/06 06:20:15;;;;;;;20.67;19.67;;;;;;;;;;5012054;28;20539;-76
2024/04/06 06:22:41;;;;;;;20.17;19.27;;;;;;;;;;5012306;28;20529;-74
2024/04/06 06:25:08;;;;;;;20.07;19.07;;;;;;;;;;5016858;28;20825;-74
2024/04/06 06:27:34;;;;;;;18.80;17.87;;;;;;;;;;5011803;28;20469;-76
2024/04/06 06:30:02;;;;;;;19.10;18.10;;;;;;;;;;5011058;28;21278;-75
2024/04/06 06:32:28;;;;;;;17.80;16.80;;;;;;;;;;5012842;28;20483;-75
2024/04/06 06:34:56;;;;;;;18.17;17.37;;;;;;;;;;5012457;28;20879;-75
2024/04/06 06:37:22;;;;;;;17.57;16.77;;;;;;;;;;5012944;28;20920;-75
2024/04/06 06:39:49;;;;;;;17.37;16.50;;;;;;;;;;5011813;28;20460;-75
2024/04/06 06:42:15;;;;;;;16.63;15.93;;;;;;;;;;5011873;28;20981;-74
2024/04/06 06:44:42;;;;;;;16.13;15.33;;;;;;;;;;5012441;28;20457;-74
2024/04/06 06:47:08;;;;;;;16.37;15.37;;;;;;;;;;5023063;28;20448;-74
2024/04/06 06:49:35;;;;;;;16.67;15.87;;;;;;;;;;5031614;28;20480;-74
2024/04/06 06:52:02;;;;;;;15.57;14.87;;;;;;;;;;5030304;28;20507;-75
2024/04/06 06:54:29;;;;;;;14.80;14.20;;;;;;;;;;5030739;28;20464;-74
2024/04/06 06:56:55;;;;;;;15.00;14.30;;;;;;;;;;5031864;28;20913;-75
2024/04/06 06:59:22;;;;;;;15.47;14.87;;;;;;;;;;5030822;28;20532;-75
2024/04/06 07:01:48;;;;;;;15.77;14.77;;;;;;;;;;5029591;28;20899;-75
2024/04/06 07:04:15;;;;;;;16.13;14.93;;;;;;;;;;5014298;28;20500;-74
2024/04/06 07:06:41;;;;;;;15.07;14.37;;;;;;;;;;5032187;28;20455;-74
2024/04/06 07:09:10;;;;;;;13.90;13.30;;;;;;;;;;5031679;28;20475;-75
2024/04/06 07:11:36;;;;;;;15.13;14.43;;;;;;;;;;5031807;28;20513;-74
2024/04/06 07:14:03;;;;;;;14.10;13.50;;;;;;;;;;5018681;28;21013;-74
2024/04/06 07:16:29;;;;;;;14.70;14.10;;;;;;;;;;5013573;28;20843;-85
2024/04/06 07:18:56;;;;;;;14.03;13.43;;;;;;;;;;5023502;28;21026;-75
2024/04/06 07:21:22;;;;;;;14.47;13.67;;;;;;;;;;5031809;28;20475;-74
2024/04/06 07:23:49;;;;;;;14.00;13.20;;;;;;;;;;5032337;28;20549;-74
2024/04/06 07:26:16;;;;;;;14.33;13.60;;;;;;;;;;5032001;28;20454;-74
2024/04/06 07:28:44;;;;;;;13.97;13.37;;;;;;;;;;5031212;28;20536;-75
2024/04/06 07:31:10;;;;;;;14.20;13.57;;;;;;;;;;5030482;28;20588;-75
2024/04/06 07:33:37;;;;;;;13.63;12.97;;;;;;;;;;5031592;28;20523;-75
2024/04/06 07:36:03;;;;;;;14.33;13.63;;;;;;;;;;5032225;28;20445;-75
2024/04/06 07:38:30;;;;;;;14.47;13.77;;;;;;;;;;5031130;28;20512;-75
2024/04/06 07:40:56;;;;;;;13.90;13.10;;;;;;;;;;5032406;28;21044;-76
2024/04/06 07:43:25;;;;;;;15.53;14.63;;;;;;;;;;5032823;28;20489;-75
2024/04/06 07:45:51;;;;;;;14.17;13.57;;;;;;;;;;5031372;28;20998;-76
2024/04/06 07:48:18;;;;;;;14.83;13.93;;;;;;;;;;5030744;28;21268;-76
2024/04/06 07:50:44;;;;;;;14.53;13.83;;;;;;;;;;5033189;28;20449;-75
2024/04/06 07:53:11;;;;;;;14.70;14.10;;;;;;;;;;5032363;28;20452;-75
2024/04/06 07:55:37;;;;;;;14.70;14.10;;;;;;;;;;5031311;28;20863;-75
2024/04/06 07:58:04;;;;;;;14.20;13.50;;;;;;;;;;5024554;28;20513;-74
2024/04/06 08:00:32;;;;;;;14.77;14.17;;;;;;;;;;5030306;28;20825;-75
2024/04/06 08:02:59;;;;;;;15.33;14.63;;;;;;;;;;5031043;28;20464;-75
2024/04/06 08:05:24;;;;;;;15.60;14.90;;;;;;;;;;5030326;28;20503;-75
2024/04/06 08:07:51;;;;;;;15.50;14.70;;;;;;;;;;5030517;28;20441;-74
2024/04/06 08:10:19;;;;;;;16.20;15.30;;;;;;;;;;5030491;28;20503;-75
2024/04/06 08:12:46;;;;;;;15.50;14.80;;;;;;;;;;5030744;28;20543;-74
2024/04/06 08:15:12;;;;;;;17.93;16.93;;;;;;;;;;5030578;28;20498;-75
2024/04/06 08:17:41;;;;;;;16.77;15.97;;;;;;;;;;5029902;28;20843;-76
2024/04/06 08:20:08;;;;;;;16.50;15.50;;;;;;;;;;5028042;28;20454;-74
2024/04/06 08:22:35;;;;;;;15.67;14.87;;;;;;;;;;5029683;28;20474;-75
2024/04/06 08:25:04;;;;;;;16.30;15.60;;;;;;;;;;5045718;28;20507;-75
2024/04/06 08:27:33;;;;;;;16.70;15.90;;;;;;;;;;5050636;28;20449;-76
2024/04/06 08:29:59;;;;;;;16.53;15.73;;;;;;;;;;5049017;28;20476;-76
2024/04/06 08:32:26;;;;;;;17.17;15.90;;;;;;;;;;5042885;28;20834;-76
2024/04/06 08:34:55;;;;;;;17.83;16.73;;;;;;;;;;5030399;28;20471;-77
2024/04/06 08:37:22;;;;;;;17.60;16.50;;;;;;;;;;5011064;28;20454;-76
2024/04/06 08:39:48;;;;;;;17.00;16.20;;;;;;;;;;5019948;28;20571;-75
2024/04/06 08:42:16;;;;;;;17.83;16.63;;;;;;;;;;5008651;28;20910;-76
2024/04/06 08:44:43;;;;;;;17.13;16.13;;;;;;;;;;5011150;28;20478;-75
2024/04/06 08:47:12;;;;;;;16.67;15.83;;;;;;;;;;5010265;28;20949;-76
2024/04/06 08:49:38;;;;;;;16.80;15.90;;;;;;;;;;5008972;28;20454;-75
2024/04/06 08:52:07;;;;;;;16.97;16.17;;;;;;;;;;5010084;28;20540;-76
2024/04/06 08:54:33;;;;;;;17.30;16.40;;;;;;;;;;5010008;28;20457;-75
2024/04/06 08:57:01;;;;;;;18.97;17.70;;;;;;;;;;5010453;28;20446;-75
2024/04/06 08:59:27;;;;;;;17.13;16.33;;;;;;;;;;5009457;28;21030;-76
2024/04/06 09:01:54;;;;;;;17.97;16.90;;;;;;;;;;5010655;28;20535;-76
2024/04/06 09:04:20;;;;;;;17.87;16.87;;;;;;;;;;5010452;28;20493;-76
2024/04/06 09:06:47;;;;;;;18.50;17.50;;;;;;;;;;5012175;28;20540;-76
2024/04/06 09:09:15;;;;;;;18.33;17.13;;;;;;;;;;5013414;28;20460;-75
2024/04/06 09:11:43;;;;;;;17.93;16.93;;;;;;;;;;5013878;28;20519;-76
2024/04/06 09:14:10;;;;;;;18.17;17.27;;;;;;;;;;5013972;28;20442;-75
2024/04/06 09:16:38;;;;;;;18.87;17.87;;;;;;;;;;5013991;28;20508;-76
2024/04/06 09:19:04;;;;;;;17.63;16.80;;;;;;;;;;5013440;28;21057;-75
2024/04/06 09:21:31;;;;;;;19.47;18.10;;;;;;;;;;5013645;28;20499;-76
2024/04/06 09:23:58;;;;;;;20.37;19.07;;;;;;;;;;5013829;28;20458;-75
2024/04/06 09:26:30;;;;;;;19.37;18.37;;;;;;;;;;5013883;28;20447;-76
2024/04/06 09:28:57;;;;;;;18.77;17.77;;;;;;;;;;5013281;28;20453;-76
2024/04/06 09:31:24;;;;;;;19.13;18.07;;;;;;;;;;5013799;28;20505;-75
2024/04/06 09:33:51;;;;;;;18.97;17.60;;;;;;;;;;5013536;28;20415;-75
2024/04/06 09:36:19;;;;;;;20.40;19.00;;;;;;;;;;5013595;28;20864;-76
2024/04/06 09:38:46;;;;;;;19.47;18.27;;;;;;;;;;5013174;28;20457;-77
2024/04/06 09:41:16;;;;;;;19.23;18.13;;;;;;;;;;5013733;28;20484;-75
2024/04/06 09:43:43;;;;;;;20.40;19.10;;;;;;;;;;5014321;28;20846;-75
2024/04/06 09:46:11;;;;;;;19.83;18.50;;;;;;;;;;5022812;28;20548;-75
2024/04/06 09:48:37;;;;;;;20.60;19.20;;;;;;;;;;5033096;28;20442;-74
2024/04/06 09:51:05;;;;;;;19.20;18.10;;;;;;;;;;5033720;28;20474;-76
2024/04/06 09:53:31;;;;;;;19.43;18.43;;;;;;;;;;5032889;28;20478;-77
2024/04/06 09:55:59;;;;;;;20.20;19.00;;;;;;;;;;5033973;28;20447;-76
2024/04/06 09:58:28;;;;;;;20.27;19.10;;;;;;;;;;5033357;28;20490;-76
2024/04/06 10:00:56;;;;;;;20.27;19.07;;;;;;;;;;5034218;28;20450;-76
2024/04/06 10:03:22;;;;;;;20.60;19.40;;;;;;;;;;5033047;28;20507;-76
2024/04/06 10:05:50;;;;;;;21.20;20.00;;;;;;;;;;5021021;28;20490;-76
2024/04/06 10:08:17;;;;;;;20.20;19.10;;;;;;;;;;5023473;28;20541;-78
2024/04/06 10:10:47;;;;;;;20.90;19.70;;;;;;;;;;5032851;28;20438;-76
2024/04/06 10:13:18;;;;;;;21.73;20.43;;;;;;;;;;5032754;28;20823;-76
2024/04/06 10:15:45;;;;;;;21.90;20.60;;;;;;;;;;5034484;28;20420;-77
2024/04/06 10:18:13;;;;;;;22.17;20.97;;;;;;;;;;5033138;28;20826;-77
2024/04/06 10:20:41;;;;;;;21.90;20.40;;;;;;;;;;5033908;28;20541;-77
2024/04/06 10:23:07;;;;;;;23.00;21.50;;;;;;;;;;5033792;28;20531;-78
2024/04/06 10:25:36;;;;;;;22.13;20.73;;;;;;;;;;5033501;28;20823;-77
2024/04/06 10:28:03;;;;;;;22.30;21.00;;;;;;;;;;5033411;28;20451;-77
2024/04/06 10:30:30;;;;;;;21.93;20.73;;;;;;;;;;5032718;28;20512;-77
2024/04/06 10:32:56;;;;;;;22.17;20.97;;;;;;;;;;5032782;28;20504;-77
2024/04/06 10:35:24;;;;;;;23.63;22.23;;;;;;;;;;5032877;28;20459;-77
2024/04/06 10:37:50;;;;;;;25.33;23.53;;;;;;;;;;5033140;28;20513;-77
2024/04/06 10:40:18;;;;;;;23.53;22.13;;;;;;;;;;5032320;28;21007;-77
2024/04/06 10:42:44;;;;;;;21.93;20.60;;;;;;;;;;5032981;28;21146;-77
2024/04/06 10:45:12;;;;;;;21.73;20.53;;;;;;;;;;5032949;28;20464;-76
2024/04/06 10:47:38;;;;;;;22.43;21.10;;;;;;;;;;5032995;28;20521;-78
2024/04/06 10:50:08;;;;;;;22.40;21.10;;;;;;;;;;5032672;28;20504;-77
2024/04/06 10:52:35;;;;;;;21.53;20.30;;;;;;;;;;5032802;28;20489;-76
2024/04/06 10:55:09;;;;;;;21.47;20.00;;;;;;;;;;5033377;28;20483;-77
2024/04/06 10:57:35;;;;;;;22.40;21.20;;;;;;;;;;5033548;28;20538;-76
2024/04/06 11:00:04;;;;;;;22.27;20.97;;;;;;;;;;5031316;28;20565;-77
2024/04/06 11:02:32;;;;;;;22.70;21.10;;;;;;;;;;5032404;28;20468;-77
2024/04/06 11:04:59;;;;;;;22.53;21.13;;;;;;;;;;5032897;28;20446;-77
2024/04/06 11:07:25;;;;;;;24.13;22.43;;;;;;;;;;5032626;28;20452;-77
2024/04/06 11:09:53;;;;;;;22.70;21.37;;;;;;;;;;5032020;28;20513;-79
2024/04/06 11:12:19;;;;;;;22.07;20.87;;;;;;;;;;5031492;28;20498;-81
2024/04/06 11:14:50;;;;;;;21.30;20.20;;;;;;;;;;5026893;28;20458;-76
2024/04/06 11:17:17;;;;;;;21.17;19.90;;;;;;;;;;5031882;28;20448;-75
2024/04/06 11:19:44;;;;;;;21.50;20.33;;;;;;;;;;5031307;28;20494;-76
2024/04/06 11:22:10;;;;;;;21.67;20.33;;;;;;;;;;5031270;28;20541;-76
2024/04/06 11:24:37;;;;;;;20.83;19.70;;;;;;;;;;5030633;28;20458;-81
2024/04/06 11:27:08;;;;;;;21.17;19.80;;;;;;;;;;5030985;28;20463;-75
2024/04/06 11:29:35;;;;;;;22.53;21.03;;;;;;;;;;5030211;28;20456;-81
2024/04/06 11:32:01;;;;;;;21.07;19.80;;;;;;;;;;5033271;28;20857;-75
2024/04/06 11:34:28;;;;;;;21.27;19.97;;;;;;;;;;5031358;28;20546;-76
2024/04/06 11:36:54;;;;;;;21.43;20.23;;;;;;;;;;5031724;28;20451;-77
2024/04/06 11:39:21;;;;;;;22.17;20.43;;;;;;;;;;5011523;28;20623;-75
2024/04/06 11:41:47;;;;;;;21.70;20.50;;;;;;;;;;5023704;28;20472;-76
2024/04/06 11:44:16;;;;;;;21.33;20.03;;;;;;;;;;5009883;28;20991;-76
2024/04/06 11:46:42;;;;;;;21.23;20.00;;;;;;;;;;5011035;28;20883;-76
2024/04/06 11:49:09;;;;;;;21.50;20.20;;;;;;;;;;5011022;28;20456;-76
2024/04/06 11:51:35;;;;;;;21.40;20.10;;;;;;;;;;5010807;28;20523;-75
2024/04/06 11:54:02;;;;;;;21.83;20.63;;;;;;;;;;5019341;28;20463;-76
2024/04/06 11:56:28;;;;;;;20.80;19.70;;;;;;;;;;5025052;28;20526;-75
2024/04/06 11:58:55;;;;;;;21.90;20.50;;;;;;;;;;5029879;28;20487;-77
2024/04/06 12:01:23;;;;;;;21.50;20.20;;;;;;;;;;5030627;28;20471;-76
2024/04/06 12:03:50;;;;;;;22.23;20.93;;;;;;;;;;5030163;28;20542;-76
2024/04/06 12:06:17;;;;;;;21.87;20.67;;;;;;;;;;5028358;28;20482;-75
2024/04/06 12:08:44;;;;;;;22.47;21.17;;;;;;;;;;5030396;28;20451;-75
2024/04/06 12:11:10;;;;;;;21.90;20.70;;;;;;;;;;5030377;28;20537;-76
2024/04/06 12:13:37;;;;;;;22.17;20.90;;;;;;;;;;5029859;28;20448;-76
2024/04/06 12:16:04;;;;;;;22.70;21.10;;;;;;;;;;5024674;28;20451;-76
2024/04/06 12:18:32;;;;;;;21.53;20.33;;;;;;;;;;5029090;28;20490;-77
2024/04/06 12:20:58;;;;;;;22.87;21.57;;;;;;;;;;5029529;28;20492;-76
2024/04/06 12:23:25;;;;;;;22.60;21.30;;;;;;;;;;5029514;28;20506;-75
2024/04/06 12:25:51;;;;;;;22.70;21.40;;;;;;;;;;5027904;28;20464;-76
2024/04/06 12:28:18;;;;;;;23.70;22.30;;;;;;;;;;5028551;28;20596;-76
2024/04/06 12:30:45;;;;;;;22.43;21.23;;;;;;;;;;5029935;28;20859;-75
2024/04/06 12:33:12;;;;;;;23.43;21.93;;;;;;;;;;5029715;28;20493;-76
2024/04/06 12:35:42;;;;;;;23.37;22.00;;;;;;;;;;5029922;28;20459;-76
2024/04/06 12:38:09;;;;;;;24.30;22.90;;;;;;;;;;5020500;28;20467;-75
2024/04/06 12:40:35;;;;;;;22.50;21.17;;;;;;;;;;5023235;28;20562;-76
2024/04/06 12:43:02;;;;;;;22.20;20.90;;;;;;;;;;5015243;28;20476;-76
2024/04/06 12:45:28;;;;;;;23.83;22.33;;;;;;;;;;5014908;28;20445;-77
2024/04/06 12:47:55;;;;;;;24.07;22.47;;;;;;;;;;5015073;28;20459;-76
2024/04/06 12:50:21;;;;;;;23.23;21.87;;;;;;;;;;5013939;28;20503;-75
2024/04/06 12:52:52;;;;;;;23.43;22.03;;;;;;;;;;5014285;28;20476;-75
2024/04/06 12:55:18;;;;;;;24.30;22.50;;;;;;;;;;5014514;28;20456;-75
2024/04/06 12:57:44;;;;;;;23.30;21.87;;;;;;;;;;5014697;28;20562;-76
2024/04/06 13:00:14;;;;;;;23.43;21.70;;;;;;;;;;5013937;28;20575;-76
2024/04/06 13:02:40;;;;;;;24.77;23.30;;;;;;;;;;5013368;28;20488;-75
2024/04/06 13:05:07;;;;;;;23.70;22.33;;;;;;;;;;5012621;28;21006;-76
2024/04/06 13:07:34;;;;;;;23.33;21.80;;;;;;;;;;5014517;28;20464;-75
2024/04/06 13:10:04;;;;;;;23.57;22.27;;;;;;;;;;5013413;28;20444;-74
2024/04/06 13:12:30;;;;;;;22.70;21.40;;;;;;;;;;5016686;28;20529;-78
2024/04/06 13:14:58;;;;;;;23.60;22.20;;;;;;;;;;5033800;28;20460;-75
2024/04/06 13:17:24;;;;;;;23.47;22.07;;;;;;;;;;5034393;28;20455;-76
2024/04/06 13:19:51;;;;;;;23.27;21.97;;;;;;;;;;5033266;28;20561;-77
2024/04/06 13:22:18;;;;;;;23.60;22.10;;;;;;;;;;5033305;28;20476;-76
2024/04/06 13:24:44;;;;;;;23.03;21.63;;;;;;;;;;5032530;28;20477;-75
2024/04/06 13:27:12;;;;;;;23.10;21.50;;;;;;;;;;5032931;28;20440;-75
2024/04/06 13:29:39;;;;;;;22.73;21.37;;;;;;;;;;5032218;28;20801;-76
2024/04/06 13:32:05;;;;;;;21.80;20.60;;;;;;;;;;5032559;28;20999;-75
2024/04/06 13:34:34;;;;;;;23.73;22.20;;;;;;;;;;5023790;28;20833;-76
2024/04/06 13:37:00;;;;;;;22.50;21.20;;;;;;;;;;5013089;28;20472;-75
2024/04/06 13:39:27;;;;;;;22.70;21.27;;;;;;;;;;5013282;28;20571;-76
2024/04/06 13:41:53;;;;;;;22.50;21.10;;;;;;;;;;5013699;28;20507;-75
2024/04/06 13:44:21;;;;;;;22.87;21.43;;;;;;;;;;5015048;28;20452;-76
2024/04/06 13:46:47;;;;;;;22.70;21.30;;;;;;;;;;5032800;28;20518;-75
2024/04/06 13:49:14;;;;;;;23.10;21.70;;;;;;;;;;5032410;28;20534;-75
2024/04/06 13:51:40;;;;;;;23.27;21.87;;;;;;;;;;5031905;28;20980;-76
2024/04/06 13:54:08;;;;;;;21.73;20.53;;;;;;;;;;5032730;28;20451;-75
2024/04/06 13:56:34;;;;;;;22.50;21.10;;;;;;;;;;5032742;28;20472;-75
2024/04/06 13:59:01;;;;;;;22.43;21.03;;;;;;;;;;5032008;28;20475;-76
2024/04/06 14:01:29;;;;;;;22.30;21.00;;;;;;;;;;5032575;28;21006;-75
2024/04/06 14:03:56;;;;;;;21.90;20.50;;;;;;;;;;5033145;28;20948;-75
2024/04/06 14:06:22;;;;;;;21.90;20.50;;;;;;;;;;5016898;28;20488;-76
2024/04/06 14:08:49;;;;;;;23.40;22.00;;;;;;;;;;5013546;28;20449;-76
2024/04/06 14:11:15;;;;;;;22.80;21.30;;;;;;;;;;5032283;28;20479;-75
2024/04/06 14:13:44;;;;;;;23.20;21.70;;;;;;;;;;5032534;28;20459;-74